Stourbridge, United Kingdom
Current Conditions -  °F | °C
As of 11:20 PM on Wednesday 22 Oct 2014 (Local Time) from EGBB Reporting Station
Few Clouds Few Clouds  
Wind Chill: 52°   Ceiling: Unl
Heat Index: 52°   Visibility: 6mi
Dew Point: 46°   Wind: 6mph
Humidity: 82%   Direction: 230°SW
Pressure: 30.15"   Gusts: NA
Location:  52.46°N, 2.14°W
Report Text: EGBB 222220Z 23005KT 190V260 9999 FEW028 11/08 Q1021
Loading
Personal Weather Stations






























Interactive Weather Map
Tropical Storm Tracking
New forecast layout! Learn more

10-Day Weather Forecast

Advertisements
Track Severe Weather on mobile